Eagle Valley, Nevada
Current Conditions -  °F | °C
As of 3:53 PM on Friday 28 Nov 2014 (Local Time) from KELY Reporting Station
Clear Clear  
Wind Chill: 53°   Ceiling: Unl
Heat Index: 53°   Visibility: 10mi
Dew Point: 10°   Wind: 10mph
Humidity: 18%   Direction: 190°S
Pressure: 29.96"   Gusts: NA
Location:  38.2635°N, 114.484°W
Report Text: KELY 282353Z AUTO 19009KT 10SM CLR 12/M12 A2996 RMK AO2 SLP117 T01171122 10172 20117 57010
Loading
Personal Weather Stations






























Interactive Weather Map New forecast layout! Learn more

10-Day Weather Forecast

Advertisements
Track Severe Weather on mobile